Time;durP1;ratioP1;P1;durP2;ratioP2;P2;SDS_P1;SDS_P2;PMS_P1;PMS_P2;Temp;Humidity;BMP_temperature;BMP_pressure;BME280_temperature;BME280_humidity;BME280_pressure;Samples;Min_cycle;Max_cycle;Signal;HPM_P1;HPM_P2
2022/09/05 00:01:13;;;;;;;0.80;0.80;;;25.70;50.20;;;;;;5051002;28;20673;-67
2022/09/05 00:04:14;;;;;;;0.90;0.80;;;25.60;50.10;;;;;;5024451;28;20021;-66
2022/09/05 00:06:51;;;;;;;1.10;0.80;;;25.70;50.20;;;;;;4935150;29;20348;-65
2022/09/05 00:09:43;;;;;;;0.75;0.70;;;25.70;50.20;;;;;;5037302;28;20029;-65
2022/09/05 00:12:10;;;;;;;1.20;0.80;;;25.60;50.20;;;;;;5051003;28;20420;-66
2022/09/05 00:15:05;;;;;;;1.23;0.80;;;25.60;50.20;;;;;;5051475;28;20053;-66
2022/09/05 00:17:33;;;;;;;1.35;0.73;;;25.60;50.20;;;;;;5051111;28;20567;-66
2022/09/05 00:20:29;;;;;;;0.70;0.70;;;25.60;50.30;;;;;;5051202;28;20108;-66
2022/09/05 00:23:25;;;;;;;0.70;0.70;;;25.60;50.20;;;;;;5049590;28;20032;-66
2022/09/05 00:25:50;;;;;;;0.77;0.77;;;25.50;50.20;;;;;;5012472;28;20143;-65
2022/09/05 00:28:46;;;;;;;0.80;0.80;;;25.50;50.20;;;;;;5050994;28;20025;-66
2022/09/05 00:31:43;;;;;;;0.70;0.70;;;25.50;50.20;;;;;;5050523;28;20100;-65
2022/09/05 00:34:24;;;;;;;1.42;0.75;;;25.50;50.30;;;;;;5049710;28;20025;-67
2022/09/05 00:36:54;;;;;;;1.00;0.70;;;25.50;50.30;;;;;;5050796;28;20510;-65
2022/09/05 00:39:34;;;;;;;0.90;0.70;;;25.50;50.30;;;;;;5050028;28;20434;-64
2022/09/05 00:42:20;;;;;;;0.80;0.70;;;25.50;50.40;;;;;;5049818;28;20855;-66
2022/09/05 00:44:52;;;;;;;0.70;0.70;;;25.50;50.40;;;;;;5049238;28;20337;-65
2022/09/05 00:47:34;;;;;;;1.08;0.70;;;25.50;50.40;;;;;;5050498;28;20021;-66
2022/09/05 00:50:12;;;;;;;1.10;0.80;;;25.50;50.40;;;;;;5050239;28;20029;-68
2022/09/05 00:53:18;;;;;;;0.98;0.82;;;25.40;50.30;;;;;;5050231;28;20025;-66
2022/09/05 00:55:47;;;;;;;0.70;0.70;;;25.40;50.40;;;;;;5026804;28;20044;-65
2022/09/05 00:58:18;;;;;;;0.90;0.77;;;25.40;50.40;;;;;;5050331;28;20302;-66
2022/09/05 01:01:00;;;;;;;1.10;0.88;;;25.40;50.40;;;;;;5050176;28;20037;-66
2022/09/05 01:03:51;;;;;;;0.77;0.70;;;25.40;50.40;;;;;;5050386;28;20035;-65
2022/09/05 01:06:47;;;;;;;1.05;0.80;;;25.40;50.40;;;;;;5049215;28;20025;-65
2022/09/05 01:09:34;;;;;;;0.65;0.65;;;25.40;50.40;;;;;;5050092;28;20443;-64
2022/09/05 01:12:32;;;;;;;0.85;0.70;;;25.40;50.40;;;;;;5050569;28;20041;-64
2022/09/05 01:15:04;;;;;;;0.80;0.70;;;25.40;50.50;;;;;;5050128;28;20045;-65
2022/09/05 01:18:00;;;;;;;0.80;0.80;;;25.40;50.50;;;;;;5049807;28;20029;-67
2022/09/05 01:20:35;;;;;;;2.15;0.80;;;25.30;50.50;;;;;;5050396;28;20541;-64
2022/09/05 01:23:16;;;;;;;0.77;0.70;;;25.30;50.50;;;;;;5050068;28;20079;-66
2022/09/05 01:25:48;;;;;;;0.60;0.60;;;25.30;50.50;;;;;;5049119;28;20468;-65
2022/09/05 01:28:20;;;;;;;1.15;0.80;;;25.40;50.60;;;;;;5049243;28;20529;-67
2022/09/05 01:30:56;;;;;;;1.20;0.70;;;25.30;50.50;;;;;;5049557;28;20435;-65
2022/09/05 01:33:47;;;;;;;0.80;0.70;;;25.30;50.50;;;;;;5049207;28;20480;-66
2022/09/05 01:36:28;;;;;;;0.60;0.60;;;25.30;50.50;;;;;;5049622;28;20107;-65
2022/09/05 01:39:01;;;;;;;0.82;0.80;;;25.30;50.50;;;;;;5049765;28;20044;-65
2022/09/05 01:42:04;;;;;;;0.65;0.65;;;25.30;50.50;;;;;;5049938;28;20439;-65
2022/09/05 01:44:54;;;;;;;0.75;0.70;;;25.30;50.50;;;;;;5048537;28;20029;-65
2022/09/05 01:47:20;;;;;;;0.80;0.70;;;25.30;50.50;;;;;;5050209;28;20057;-66
2022/09/05 01:50:15;;;;;;;0.88;0.60;;;25.30;50.50;;;;;;5050228;28;20132;-65
2022/09/05 01:53:24;;;;;;;0.70;0.70;;;25.30;50.50;;;;;;5050586;28;20029;-66
2022/09/05 01:56:06;;;;;;;0.63;0.63;;;25.30;50.50;;;;;;5050101;28;20453;-65
2022/09/05 01:59:09;;;;;;;0.70;0.70;;;25.30;50.50;;;;;;5049651;28;20508;-65
2022/09/05 02:01:53;;;;;;;0.77;0.60;;;25.20;50.50;;;;;;5051205;28;20485;-64
2022/09/05 02:04:42;;;;;;;0.95;0.70;;;25.20;50.50;;;;;;5053543;28;20491;-65
2022/09/05 02:07:28;;;;;;;0.70;0.60;;;25.20;50.60;;;;;;5053502;28;20538;-67
2022/09/05 02:10:23;;;;;;;0.52;0.52;;;25.20;50.60;;;;;;5053733;28;20025;-65
2022/09/05 02:12:58;;;;;;;0.88;0.70;;;25.20;50.50;;;;;;5053206;28;20503;-66
2022/09/05 02:15:40;;;;;;;0.70;0.70;;;25.20;50.60;;;;;;5053587;28;20098;-66
2022/09/05 02:18:14;;;;;;;0.60;0.60;;;25.20;50.60;;;;;;5052587;28;20033;-68
2022/09/05 02:20:53;;;;;;;0.77;0.60;;;25.20;51.10;;;;;;5051750;28;20036;-67
2022/09/05 02:23:37;;;;;;;1.20;0.70;;;25.20;50.60;;;;;;5053319;28;20102;-65
2022/09/05 02:26:16;;;;;;;0.70;0.70;;;25.20;50.60;;;;;;5053121;28;20025;-65
2022/09/05 02:28:58;;;;;;;0.68;0.68;;;25.10;50.60;;;;;;5051812;28;20445;-65
2022/09/05 02:31:38;;;;;;;0.90;0.70;;;25.10;50.60;;;;;;5052898;28;20037;-67
2022/09/05 02:34:07;;;;;;;0.70;0.70;;;25.10;50.60;;;;;;5052984;28;20552;-66
2022/09/05 02:36:53;;;;;;;0.73;0.65;;;25.10;50.60;;;;;;5053406;28;20033;-65
2022/09/05 02:39:20;;;;;;;0.73;0.70;;;25.10;50.60;;;;;;5052834;28;20082;-67
2022/09/05 02:42:22;;;;;;;0.82;0.70;;;25.10;50.60;;;;;;5053234;28;20055;-66
2022/09/05 02:45:21;;;;;;;1.00;0.70;;;25.10;50.60;;;;;;5035053;28;20489;-66
2022/09/05 02:48:07;;;;;;;0.98;0.57;;;25.10;50.60;;;;;;5052867;28;20036;-67
2022/09/05 02:50:38;;;;;;;0.68;0.68;;;25.10;50.70;;;;;;5052290;28;20037;-67
2022/09/05 02:53:07;;;;;;;0.68;0.60;;;25.10;50.70;;;;;;5052017;28;20021;-66
2022/09/05 02:56:24;;;;;;;0.65;0.60;;;25.10;50.70;;;;;;5052764;28;20477;-66
2022/09/05 02:59:43;;;;;;;0.95;0.68;;;25.10;50.70;;;;;;4997630;28;20048;-67
2022/09/05 03:02:14;;;;;;;;;;;25.10;50.70;;;;;;4971558;28;20560;-65
2022/09/05 03:04:59;;;;;;;0.63;0.63;;;25.10;50.70;;;;;;5037595;28;19905;-66
2022/09/05 03:08:06;;;;;;;0.90;0.80;;;25.00;50.60;;;;;;5051697;28;20021;-66
2022/09/05 03:11:19;;;;;;;0.70;0.70;;;25.00;50.70;;;;;;5052187;28;20021;-65
2022/09/05 03:14:18;;;;;;;0.60;0.60;;;25.00;50.70;;;;;;5052239;28;20079;-66
2022/09/05 03:17:00;;;;;;;0.70;0.70;;;25.00;50.70;;;;;;5052276;28;20028;-66
2022/09/05 03:20:03;;;;;;;0.60;0.60;;;25.00;50.70;;;;;;5050061;28;20033;-65
2022/09/05 03:23:06;;;;;;;0.80;0.70;;;25.00;50.70;;;;;;5051610;28;20021;-66
2022/09/05 03:26:08;;;;;;;0.60;0.60;;;25.00;50.70;;;;;;5052712;28;20021;-65
2022/09/05 03:28:53;;;;;;;0.75;0.70;;;24.90;50.70;;;;;;5051480;28;20496;-67
2022/09/05 03:31:37;;;;;;;0.90;0.70;;;25.00;50.80;;;;;;5051721;28;20395;-66
2022/09/05 03:34:30;;;;;;;1.08;0.65;;;24.90;50.70;;;;;;5051677;28;20028;-66
2022/09/05 03:37:32;;;;;;;0.63;0.60;;;24.90;50.70;;;;;;5052002;28;20065;-66
2022/09/05 03:40:16;;;;;;;0.70;0.70;;;24.90;50.70;;;;;;5051832;28;20707;-65
2022/09/05 03:43:12;;;;;;;0.82;0.70;;;24.90;50.70;;;;;;5052023;28;20109;-66
2022/09/05 03:45:46;;;;;;;0.80;0.73;;;24.90;50.70;;;;;;5051224;28;20052;-66
2022/09/05 03:48:18;;;;;;;0.77;0.77;;;24.90;50.70;;;;;;5051320;28;20059;-65
2022/09/05 03:50:55;;;;;;;0.80;0.70;;;24.90;50.70;;;;;;5051835;28;20029;-64
2022/09/05 03:53:27;;;;;;;0.93;0.70;;;24.90;50.70;;;;;;5051719;28;20024;-65
2022/09/05 03:55:55;;;;;;;0.60;0.60;;;24.90;50.70;;;;;;5051663;28;20115;-65
2022/09/05 03:58:54;;;;;;;1.48;0.75;;;24.90;50.80;;;;;;5051694;28;20487;-67
2022/09/05 04:01:20;;;;;;;;;;;24.90;50.70;;;;;;4965440;28;20028;-66
2022/09/05 04:04:01;;;;;;;0.70;0.70;;;24.90;50.80;;;;;;5051441;28;19913;-67
2022/09/05 04:06:45;;;;;;;0.50;0.50;;;24.80;50.70;;;;;;5051558;28;20036;-66
2022/09/05 04:09:29;;;;;;;0.68;0.68;;;24.80;50.70;;;;;;5051150;28;20388;-66
2022/09/05 04:12:09;;;;;;;0.60;0.60;;;24.80;50.70;;;;;;5051504;28;20476;-64
2022/09/05 04:14:56;;;;;;;0.95;0.70;;;24.80;50.70;;;;;;5049988;28;20400;-66
2022/09/05 04:17:21;;;;;;;0.52;0.50;;;24.80;50.70;;;;;;5051317;28;20382;-67
2022/09/05 04:19:58;;;;;;;0.70;0.68;;;24.80;50.70;;;;;;5051259;28;20036;-66
2022/09/05 04:22:31;;;;;;;0.70;0.52;;;24.90;50.80;;;;;;5050405;28;20017;-67
2022/09/05 04:25:12;;;;;;;0.80;0.70;;;24.80;50.70;;;;;;5050131;28;20048;-66
2022/09/05 04:27:52;;;;;;;0.57;0.57;;;24.80;50.70;;;;;;5051462;28;20021;-66
2022/09/05 04:30:33;;;;;;;0.80;0.60;;;24.80;50.70;;;;;;5050304;28;20028;-65
2022/09/05 04:33:32;;;;;;;0.93;0.60;;;24.80;50.70;;;;;;5050621;28;20029;-65
2022/09/05 04:36:32;;;;;;;0.68;0.60;;;24.80;50.70;;;;;;5050979;28;20017;-66
2022/09/05 04:39:18;;;;;;;0.70;0.70;;;24.80;50.70;;;;;;5007819;28;20443;-66
2022/09/05 04:41:58;;;;;;;0.95;0.70;;;24.80;50.80;;;;;;5048167;28;20060;-65
2022/09/05 04:44:34;;;;;;;0.50;0.50;;;24.80;50.80;;;;;;5050501;28;20191;-64
2022/09/05 04:47:35;;;;;;;0.60;0.60;;;24.80;50.80;;;;;;5049798;28;20492;-66
2022/09/05 04:50:22;;;;;;;0.60;0.60;;;24.80;50.80;;;;;;5050781;28;20027;-65
2022/09/05 04:53:36;;;;;;;0.50;0.50;;;24.70;50.70;;;;;;5050851;28;20068;-65
2022/09/05 04:56:13;;;;;;;0.57;0.57;;;24.80;50.80;;;;;;5043097;28;20041;-65
2022/09/05 04:58:48;;;;;;;0.80;0.70;;;24.80;50.80;;;;;;5050359;28;20639;-65
2022/09/05 05:01:22;;;;;;;0.68;0.68;;;24.70;50.70;;;;;;5049943;28;20025;-65
2022/09/05 05:03:48;;;;;;;0.68;0.68;;;24.70;50.70;;;;;;5049854;28;20473;-65
2022/09/05 05:06:29;;;;;;;0.68;0.68;;;24.70;50.80;;;;;;5050613;28;20091;-65
2022/09/05 05:09:20;;;;;;;0.70;0.70;;;24.70;50.80;;;;;;5049922;28;20472;-65
2022/09/05 05:11:58;;;;;;;0.60;0.60;;;24.70;50.80;;;;;;5050535;28;20464;-66
2022/09/05 05:14:48;;;;;;;0.65;0.63;;;24.70;50.80;;;;;;5049584;28;20045;-65
2022/09/05 05:17:23;;;;;;;0.55;0.52;;;24.70;50.80;;;;;;5050443;28;20036;-65
2022/09/05 05:19:53;;;;;;;0.60;0.60;;;24.70;50.80;;;;;;5050708;28;20048;-65
2022/09/05 05:22:18;;;;;;;0.60;0.60;;;24.70;50.80;;;;;;5050480;28;20384;-65
2022/09/05 05:24:51;;;;;;;0.77;0.60;;;24.70;50.80;;;;;;5050360;28;20047;-65
2022/09/05 05:27:32;;;;;;;0.70;0.70;;;24.70;50.80;;;;;;5050381;28;20087;-65
2022/09/05 05:30:05;;;;;;;0.80;0.70;;;24.70;50.80;;;;;;5047982;28;20027;-65
2022/09/05 05:32:46;;;;;;;0.90;0.70;;;24.70;50.80;;;;;;5049991;28;20044;-65
2022/09/05 05:35:14;;;;;;;0.82;0.65;;;24.60;50.80;;;;;;5051915;28;20049;-65
2022/09/05 05:37:41;;;;;;;0.60;0.60;;;24.70;50.80;;;;;;5053855;28;20514;-65
2022/09/05 05:40:14;;;;;;;0.60;0.60;;;24.70;50.80;;;;;;5054426;28;20032;-65
2022/09/05 05:42:40;;;;;;;0.70;0.68;;;24.70;50.90;;;;;;5052522;28;20415;-65
2022/09/05 05:45:27;;;;;;;0.55;0.55;;;24.70;51.00;;;;;;5054081;28;20380;-65
2022/09/05 05:48:04;;;;;;;0.60;0.60;;;24.70;50.90;;;;;;5053374;28;20131;-65
2022/09/05 05:50:42;;;;;;;0.75;0.60;;;24.80;50.90;;;;;;5052735;28;20382;-65
2022/09/05 05:53:19;;;;;;;0.55;0.55;;;24.80;50.80;;;;;;5053870;28;20336;-65
2022/09/05 05:56:20;;;;;;;0.57;0.57;;;24.80;50.70;;;;;;5053203;28;20388;-65
2022/09/05 05:58:58;;;;;;;0.70;0.70;;;24.80;50.60;;;;;;5053736;28;20086;-65
2022/09/05 06:01:36;;;;;;;1.08;0.82;;;24.90;50.60;;;;;;5053457;28;20036;-66
2022/09/05 06:04:39;;;;;;;0.77;0.70;;;24.90;50.50;;;;;;5051072;28;20021;-65
2022/09/05 06:07:25;;;;;;;0.70;0.70;;;25.00;50.40;;;;;;5053128;28;20029;-65
2022/09/05 06:10:19;;;;;;;0.75;0.70;;;25.00;50.30;;;;;;5052846;28;20554;-65
2022/09/05 06:13:33;;;;;;;0.57;0.57;;;25.10;50.40;;;;;;5053209;28;20484;-65
2022/09/05 06:16:16;;;;;;;0.80;0.75;;;25.10;50.30;;;;;;4963360;28;20374;-65
2022/09/05 06:19:15;;;;;;;0.70;0.70;;;25.10;50.20;;;;;;4961084;28;20507;-65
2022/09/05 06:21:59;;;;;;;1.05;0.80;;;25.10;50.10;;;;;;5034864;28;20033;-65
2022/09/05 06:24:57;;;;;;;0.63;0.63;;;25.20;50.10;;;;;;5053013;28;20495;-65
2022/09/05 06:27:41;;;;;;;0.70;0.70;;;25.20;50.00;;;;;;5007762;28;20037;-65
2022/09/05 06:30:08;;;;;;;1.00;0.70;;;25.30;50.10;;;;;;5052447;28;20425;-65
2022/09/05 06:32:52;;;;;;;0.70;0.70;;;25.30;50.10;;;;;;5052868;28;20472;-65
2022/09/05 06:35:43;;;;;;;1.10;0.80;;;25.30;50.00;;;;;;5051620;28;20475;-64
2022/09/05 06:38:41;;;;;;;0.70;0.60;;;25.30;50.00;;;;;;5051477;28;20029;-65
2022/09/05 06:41:28;;;;;;;1.05;0.70;;;25.40;50.00;;;;;;5053072;28;20496;-64
2022/09/05 06:44:21;;;;;;;0.73;0.73;;;25.40;50.00;;;;;;5052045;28;20025;-65
2022/09/05 06:46:51;;;;;;;0.70;0.70;;;25.40;49.90;;;;;;5052499;28;20493;-64
2022/09/05 06:49:24;;;;;;;0.95;0.70;;;25.40;49.90;;;;;;5051265;28;20166;-65
2022/09/05 06:52:08;;;;;;;1.20;0.77;;;25.40;49.80;;;;;;5051788;28;20086;-64
2022/09/05 06:54:49;;;;;;;1.02;0.70;;;25.40;49.80;;;;;;5052735;28;20064;-65
2022/09/05 06:57:32;;;;;;;0.70;0.70;;;25.40;49.70;;;;;;5052703;28;20439;-64
2022/09/05 07:00:17;;;;;;;1.48;0.70;;;25.40;49.70;;;;;;5052581;28;20472;-64
2022/09/05 07:03:10;;;;;;;0.82;0.77;;;25.50;49.70;;;;;;5052495;28;20037;-64
2022/09/05 07:05:44;;;;;;;0.70;0.70;;;25.50;49.70;;;;;;5052500;28;20175;-65
2022/09/05 07:08:28;;;;;;;0.80;0.73;;;25.50;49.60;;;;;;5051839;28;20036;-65
2022/09/05 07:11:15;;;;;;;0.93;0.80;;;25.60;49.60;;;;;;5051883;28;20059;-65
2022/09/05 07:14:03;;;;;;;1.00;0.80;;;25.60;49.60;;;;;;5051444;28;20048;-64
2022/09/05 07:16:50;;;;;;;0.70;0.70;;;25.60;49.60;;;;;;5051087;28;20029;-64
2022/09/05 07:19:25;;;;;;;0.88;0.82;;;25.60;49.60;;;;;;5050486;28;20082;-64
2022/09/05 07:22:06;;;;;;;0.77;0.75;;;25.60;49.50;;;;;;5051328;28;20094;-64
2022/09/05 07:24:36;;;;;;;0.82;0.70;;;25.70;49.60;;;;;;5051778;28;20071;-64
2022/09/05 07:27:05;;;;;;;1.30;0.75;;;25.70;49.50;;;;;;5052144;28;20024;-65
2022/09/05 07:29:39;;;;;;;0.80;0.80;;;25.70;49.50;;;;;;5050112;28;20028;-65
2022/09/05 07:32:07;;;;;;;2.15;0.70;;;25.70;49.50;;;;;;5049398;28;20041;-64
2022/09/05 07:34:35;;;;;;;1.17;0.90;;;25.70;49.50;;;;;;5050249;28;20571;-65
2022/09/05 07:37:14;;;;;;;1.10;0.90;;;25.70;49.50;;;;;;5050718;28;20524;-64
2022/09/05 07:39:46;;;;;;;1.02;0.73;;;25.70;49.60;;;;;;5051068;28;20029;-65
2022/09/05 07:42:17;;;;;;;0.93;0.70;;;25.80;49.60;;;;;;5050026;28;20037;-65
2022/09/05 07:44:59;;;;;;;0.98;0.70;;;25.80;49.60;;;;;;5050412;28;20061;-65
2022/09/05 07:47:30;;;;;;;1.00;0.80;;;25.80;49.60;;;;;;5051084;28;20850;-65
2022/09/05 07:49:59;;;;;;;1.40;0.93;;;25.80;49.60;;;;;;5050647;28;20043;-65
2022/09/05 07:52:26;;;;;;;0.70;0.70;;;25.80;49.60;;;;;;5051158;28;20117;-65
2022/09/05 07:54:57;;;;;;;0.90;0.70;;;25.80;49.60;;;;;;5050279;28;20526;-65
2022/09/05 07:57:30;;;;;;;1.02;0.75;;;25.90;49.60;;;;;;5050783;28;20519;-65
2022/09/05 08:00:03;;;;;;;0.70;0.70;;;25.90;49.70;;;;;;5051605;28;20096;-65
2022/09/05 08:02:30;;;;;;;0.70;0.70;;;25.90;49.80;;;;;;5050664;28;20042;-64
2022/09/05 08:05:02;;;;;;;0.70;0.70;;;25.90;49.80;;;;;;5049706;28;20056;-65
2022/09/05 08:07:36;;;;;;;1.42;0.70;;;25.90;49.70;;;;;;5051423;28;20892;-64
2022/09/05 08:10:10;;;;;;;1.40;0.75;;;25.90;49.70;;;;;;5049581;28;20048;-67
2022/09/05 08:12:47;;;;;;;0.65;0.65;;;25.90;49.70;;;;;;5051089;28;20068;-66
2022/09/05 08:15:23;;;;;;;1.13;0.80;;;26.00;49.80;;;;;;5051106;28;20028;-66
2022/09/05 08:18:15;;;;;;;1.08;0.88;;;25.90;49.80;;;;;;5050764;28;20484;-66
2022/09/05 08:20:52;;;;;;;1.00;0.90;;;25.90;49.80;;;;;;5050364;28;20021;-67
2022/09/05 08:23:57;;;;;;;1.00;0.80;;;25.90;49.90;;;;;;5050710;28;20021;-66
2022/09/05 08:26:25;;;;;;;0.90;0.70;;;26.00;49.90;;;;;;5051420;28;20028;-66
2022/09/05 08:29:16;;;;;;;0.93;0.70;;;25.90;50.10;;;;;;5050996;28;20028;-66
2022/09/05 08:32:08;;;;;;;0.82;0.80;;;26.00;50.40;;;;;;5050399;28;20260;-66
2022/09/05 08:34:49;;;;;;;1.13;0.80;;;26.00;50.60;;;;;;5013138;28;20087;-66
2022/09/05 08:37:20;;;;;;;0.63;0.60;;;26.00;50.60;;;;;;5048622;28;20029;-66
2022/09/05 08:39:50;;;;;;;1.33;0.60;;;26.10;50.90;;;;;;5050569;28;20499;-66
2022/09/05 08:42:40;;;;;;;0.50;0.50;;;26.10;50.50;;;;;;5050843;28;20024;-66
2022/09/05 08:45:23;;;;;;;0.60;0.60;;;26.00;50.80;;;;;;5049792;28;20108;-66
2022/09/05 08:47:54;;;;;;;0.73;0.68;;;26.00;51.00;;;;;;5050540;28;20201;-66
2022/09/05 08:50:34;;;;;;;0.60;0.60;;;26.10;51.00;;;;;;5050737;28;20029;-66
2022/09/05 08:53:25;;;;;;;0.65;0.65;;;26.10;51.00;;;;;;5050687;28;20032;-65
2022/09/05 08:56:00;;;;;;;0.52;0.52;;;26.10;51.00;;;;;;5051157;28;20028;-66
2022/09/05 08:58:56;;;;;;;0.45;0.45;;;26.10;51.00;;;;;;5049063;28;20021;-66
2022/09/05 09:01:27;;;;;;;0.63;0.63;;;26.20;51.20;;;;;;5049510;28;20160;-66
2022/09/05 09:04:03;;;;;;;0.68;0.68;;;26.20;51.10;;;;;;5050576;28;20507;-66
2022/09/05 09:06:52;;;;;;;0.75;0.50;;;26.20;51.10;;;;;;5050657;28;20021;-65
2022/09/05 09:09:58;;;;;;;0.70;0.70;;;26.20;50.90;;;;;;5050348;28;20032;-65
2022/09/05 09:12:42;;;;;;;0.63;0.60;;;26.30;50.70;;;;;;4973655;28;20067;-66
2022/09/05 09:15:53;;;;;;;0.60;0.60;;;26.30;50.70;;;;;;4972850;28;20129;-65
2022/09/05 09:18:20;;;;;;;0.80;0.70;;;26.30;50.90;;;;;;4968423;28;20042;-64
2022/09/05 09:20:54;;;;;;;1.80;0.73;;;26.30;50.90;;;;;;5044200;28;20508;-64
2022/09/05 09:23:59;;;;;;;0.55;0.55;;;26.30;51.10;;;;;;5054024;28;20547;-64
2022/09/05 09:26:34;;;;;;;0.60;0.60;;;26.40;51.20;;;;;;5053488;28;20024;-65
2022/09/05 09:29:12;;;;;;;0.85;0.60;;;26.40;51.20;;;;;;5054123;28;20021;-64
2022/09/05 09:31:43;;;;;;;0.60;0.60;;;26.40;51.20;;;;;;5053884;28;20130;-65
2022/09/05 09:34:31;;;;;;;0.60;0.60;;;26.40;51.20;;;;;;5054291;28;20108;-65
2022/09/05 09:37:21;;;;;;;0.55;0.55;;;26.40;51.40;;;;;;5054225;28;20025;-63
2022/09/05 09:40:11;;;;;;;0.50;0.50;;;26.40;51.30;;;;;;5053949;28;20029;-65
2022/09/05 09:42:50;;;;;;;0.65;0.57;;;26.50;51.20;;;;;;5054038;28;20087;-65
2022/09/05 09:45:27;;;;;;;;;;;26.50;51.20;;;;;;5054524;28;20025;-64
2022/09/05 09:48:15;;;;;;;0.50;0.50;;;26.50;51.30;;;;;;5053853;28;20407;-65
2022/09/05 09:50:46;;;;;;;1.08;0.65;;;26.50;51.20;;;;;;5052732;28;20021;-65
2022/09/05 09:53:49;;;;;;;0.60;0.60;;;26.60;51.30;;;;;;5053927;28;20028;-64
2022/09/05 09:56:26;;;;;;;0.68;0.65;;;26.60;51.30;;;;;;5053966;28;20103;-65
2022/09/05 09:59:17;;;;;;;0.70;0.70;;;26.60;51.20;;;;;;5053547;28;20025;-67
2022/09/05 10:01:50;;;;;;;0.60;0.60;;;26.60;51.30;;;;;;5051099;28;20453;-66
2022/09/05 10:04:44;;;;;;;0.50;0.50;;;26.60;51.10;;;;;;5053831;28;20506;-65
2022/09/05 10:07:48;;;;;;;0.60;0.60;;;26.70;51.20;;;;;;5053465;28;20472;-66
2022/09/05 10:10:51;;;;;;;0.50;0.50;;;26.70;51.20;;;;;;5053427;28;20029;-65
2022/09/05 10:13:41;;;;;;;0.50;0.50;;;26.70;51.10;;;;;;5052883;28;20853;-65
2022/09/05 10:16:33;;;;;;;1.38;0.60;;;26.70;51.10;;;;;;5053633;28;20125;-64
2022/09/05 10:19:26;;;;;;;0.60;0.60;;;26.70;51.00;;;;;;5047382;28;20510;-65
2022/09/05 10:22:10;;;;;;;0.75;0.50;;;26.80;51.10;;;;;;5052178;28;20385;-66
2022/09/05 10:24:36;;;;;;;0.60;0.60;;;26.80;51.70;;;;;;5053223;28;20492;-65
2022/09/05 10:27:11;;;;;;;0.93;0.60;;;26.80;51.10;;;;;;5053294;28;20060;-65
2022/09/05 10:29:37;;;;;;;0.60;0.50;;;26.80;51.10;;;;;;5052726;28;20035;-65
2022/09/05 10:32:09;;;;;;;0.60;0.60;;;26.80;51.40;;;;;;5036169;28;20034;-65
2022/09/05 10:34:57;;;;;;;0.40;0.40;;;26.90;51.40;;;;;;5033162;28;20503;-65
2022/09/05 10:37:40;;;;;;;0.60;0.57;;;26.90;51.20;;;;;;5033312;28;20033;-65
2022/09/05 10:40:10;;;;;;;0.60;0.60;;;26.90;50.90;;;;;;5032069;28;20087;-65
2022/09/05 10:42:44;;;;;;;0.50;0.50;;;26.90;50.70;;;;;;5032715;28;20033;-65
2022/09/05 10:45:21;;;;;;;1.45;0.50;;;26.90;50.50;;;;;;5033130;28;20036;-65
2022/09/05 10:48:10;;;;;;;0.60;0.60;;;26.90;50.30;;;;;;5033454;28;20060;-63
2022/09/05 10:50:42;;;;;;;0.60;0.50;;;26.90;50.20;;;;;;5032350;28;20079;-66
2022/09/05 10:53:44;;;;;;;0.60;0.60;;;27.00;50.50;;;;;;5031355;28;20033;-65
2022/09/05 10:56:27;;;;;;;0.65;0.57;;;27.00;51.10;;;;;;5032158;28;20162;-65
2022/09/05 10:59:00;;;;;;;0.70;0.60;;;27.00;51.30;;;;;;5032922;28;20087;-65
2022/09/05 11:01:39;;;;;;;0.65;0.60;;;27.00;51.30;;;;;;5031426;28;20489;-65
2022/09/05 11:04:12;;;;;;;0.70;0.65;;;27.00;51.30;;;;;;5031997;28;20025;-65
2022/09/05 11:06:41;;;;;;;0.77;0.70;;;27.10;51.20;;;;;;5032641;28;20036;-66
2022/09/05 11:09:36;;;;;;;1.27;0.70;;;27.00;51.20;;;;;;5031120;28;20511;-65
2022/09/05 11:12:25;;;;;;;1.23;0.70;;;27.10;51.30;;;;;;5031887;28;20029;-65
2022/09/05 11:15:03;;;;;;;0.60;0.60;;;27.10;51.20;;;;;;5032419;28;20049;-66
2022/09/05 11:17:45;;;;;;;1.02;0.70;;;27.10;51.40;;;;;;5031746;28;20432;-66
2022/09/05 11:20:20;;;;;;;1.08;0.70;;;27.10;51.60;;;;;;5035042;28;20037;-67
2022/09/05 11:22:47;;;;;;;0.80;0.60;;;27.10;51.50;;;;;;5033520;28;20025;-65
2022/09/05 11:25:23;;;;;;;0.73;0.60;;;27.10;51.50;;;;;;5036596;28;20041;-66
2022/09/05 11:27:53;;;;;;;0.80;0.77;;;27.10;51.30;;;;;;5033494;28;20055;-65
2022/09/05 11:30:22;;;;;;;0.65;0.65;;;27.10;51.30;;;;;;5033037;28;20029;-67
2022/09/05 11:32:53;;;;;;;0.70;0.68;;;27.10;51.40;;;;;;5032940;28;20393;-67
2022/09/05 11:35:22;;;;;;;0.70;0.60;;;27.10;51.40;;;;;;5036565;28;20029;-65
2022/09/05 11:38:03;;;;;;;0.60;0.60;;;27.10;51.30;;;;;;5038692;28;20461;-65
2022/09/05 11:40:38;;;;;;;0.50;0.50;;;27.20;51.30;;;;;;5034534;28;20033;-65
2022/09/05 11:43:28;;;;;;;0.85;0.70;;;27.20;51.30;;;;;;5035467;28;20025;-65
2022/09/05 11:46:12;;;;;;;0.73;0.60;;;27.20;51.40;;;;;;5030834;28;20160;-66
2022/09/05 11:48:59;;;;;;;0.60;0.60;;;27.20;51.20;;;;;;5030915;28;20038;-65
2022/09/05 11:52:02;;;;;;;0.68;0.68;;;27.20;51.10;;;;;;5030575;28;20029;-65
2022/09/05 11:54:42;;;;;;;0.70;0.60;;;27.20;51.00;;;;;;5030785;28;20033;-66
2022/09/05 11:57:42;;;;;;;0.82;0.60;;;27.20;51.10;;;;;;5030807;28;20025;-66
2022/09/05 12:00:26;;;;;;;0.88;0.70;;;27.30;51.10;;;;;;5025637;28;20060;-64
2022/09/05 12:03:16;;;;;;;0.70;0.65;;;27.30;51.00;;;;;;5031097;28;20060;-65
2022/09/05 12:06:06;;;;;;;0.65;0.65;;;27.30;50.90;;;;;;5030667;28;20037;-65
2022/09/05 12:08:52;;;;;;;0.80;0.60;;;27.30;50.80;;;;;;5029747;28;20025;-64
2022/09/05 12:11:37;;;;;;;1.10;0.70;;;27.30;50.90;;;;;;5030798;28;20040;-64
2022/09/05 12:14:40;;;;;;;0.70;0.70;;;27.30;51.00;;;;;;5030668;28;20053;-65
2022/09/05 12:17:09;;;;;;;0.65;0.60;;;27.30;50.90;;;;;;5030877;28;20040;-65
2022/09/05 12:19:56;;;;;;;0.90;0.60;;;27.30;50.80;;;;;;5030652;28;20481;-65
2022/09/05 12:22:37;;;;;;;0.63;0.63;;;27.40;50.80;;;;;;5030835;28;20484;-65
2022/09/05 12:25:26;;;;;;;0.50;0.50;;;27.30;50.80;;;;;;5030604;28;20025;-66
2022/09/05 12:27:57;;;;;;;;;;;27.40;50.80;;;;;;5031020;28;20026;-65
2022/09/05 12:30:26;;;;;;;0.85;0.65;;;27.40;50.90;;;;;;5030395;28;20369;-65
2022/09/05 12:33:23;;;;;;;0.60;0.50;;;27.40;51.30;;;;;;5031236;28;20583;-65
2022/09/05 12:36:12;;;;;;;0.63;0.63;;;27.40;50.80;;;;;;5031145;28;20064;-64
2022/09/05 12:38:48;;;;;;;1.00;0.70;;;27.40;50.90;;;;;;5031002;28;20437;-65
2022/09/05 12:41:18;;;;;;;0.60;0.60;;;27.40;50.80;;;;;;5029839;28;20480;-64
2022/09/05 12:44:07;;;;;;;0.88;0.70;;;27.50;50.80;;;;;;5031001;28;20028;-66
2022/09/05 12:46:45;;;;;;;0.63;0.63;;;27.40;50.80;;;;;;4985639;28;20033;-65
2022/09/05 12:49:43;;;;;;;0.73;0.70;;;27.50;50.80;;;;;;5030998;28;20504;-65
2022/09/05 12:52:14;;;;;;;0.57;0.57;;;27.50;50.80;;;;;;5030271;28;20679;-66
2022/09/05 12:54:49;;;;;;;0.60;0.60;;;27.50;50.90;;;;;;5030826;28;20033;-66
2022/09/05 12:57:33;;;;;;;0.70;0.70;;;27.50;50.80;;;;;;5030880;28;20117;-65
2022/09/05 13:00:23;;;;;;;0.60;0.60;;;27.50;50.90;;;;;;5029687;28;20080;-66
2022/09/05 13:03:01;;;;;;;0.50;0.50;;;27.50;50.90;;;;;;5043072;28;20029;-65
2022/09/05 13:06:03;;;;;;;0.65;0.60;;;27.50;50.90;;;;;;5048849;28;20411;-65
2022/09/05 13:08:56;;;;;;;0.93;0.60;;;27.50;51.00;;;;;;5046248;28;20147;-66
2022/09/05 13:11:23;;;;;;;0.50;0.50;;;27.50;51.00;;;;;;5039722;28;20072;-66
2022/09/05 13:14:06;;;;;;;0.65;0.60;;;27.50;51.00;;;;;;5050425;28;20045;-66
2022/09/05 13:16:34;;;;;;;0.80;0.70;;;27.60;51.10;;;;;;5051027;28;20033;-65
2022/09/05 13:19:09;;;;;;;0.68;0.68;;;27.60;51.10;;;;;;5050612;28;20040;-65
2022/09/05 13:21:43;;;;;;;0.60;0.60;;;27.60;51.00;;;;;;5050635;28;20025;-64
2022/09/05 13:24:20;;;;;;;0.68;0.68;;;27.60;51.10;;;;;;5050486;28;20025;-66
2022/09/05 13:27:23;;;;;;;0.70;0.70;;;27.60;51.30;;;;;;5050136;28;20510;-64
2022/09/05 13:29:57;;;;;;;0.88;0.80;;;27.70;51.30;;;;;;5050008;28;20090;-65
2022/09/05 13:32:47;;;;;;;0.50;0.50;;;27.70;51.10;;;;;;5049799;28;20757;-65
2022/09/05 13:35:35;;;;;;;0.60;0.60;;;27.70;51.10;;;;;;5032384;28;20033;-66
2022/09/05 13:38:26;;;;;;;0.80;0.70;;;27.70;51.10;;;;;;5050162;28;20078;-66
2022/09/05 13:40:59;;;;;;;0.68;0.60;;;27.70;51.20;;;;;;5047965;28;20087;-66
2022/09/05 13:43:29;;;;;;;0.63;0.60;;;27.70;51.30;;;;;;5050327;28;20025;-65
2022/09/05 13:46:09;;;;;;;0.75;0.68;;;27.80;51.30;;;;;;5049898;28;20025;-65
2022/09/05 13:48:49;;;;;;;0.82;0.60;;;27.80;51.40;;;;;;5049906;28;20017;-66
2022/09/05 13:51:44;;;;;;;0.60;0.60;;;27.80;51.60;;;;;;5049482;28;20098;-67
2022/09/05 13:54:23;;;;;;;0.60;0.60;;;27.80;51.70;;;;;;5015510;28;20094;-65
2022/09/05 13:56:58;;;;;;;0.57;0.57;;;27.80;51.80;;;;;;5053273;28;20086;-64
2022/09/05 13:59:26;;;;;;;0.68;0.60;;;27.80;51.50;;;;;;5053190;28;20472;-65
2022/09/05 14:02:27;;;;;;;0.70;0.60;;;27.90;51.70;;;;;;5052117;28;20103;-65
2022/09/05 14:05:00;;;;;;;0.60;0.52;;;27.90;52.20;;;;;;5053705;28;20373;-66
2022/09/05 14:07:45;;;;;;;0.60;0.60;;;27.90;52.20;;;;;;5053850;28;20472;-67